sensor_id;sensor_type;location;lat;lon;timestamp;pressure;altitude;pressure_sealevel;temperature;humidity
6136;BME280;24008;42.664;23.372;2022-08-20T00:00:10;94333.78;;;24.44;51.81
6136;BME280;24008;42.664;23.372;2022-08-20T00:02:53;94384.19;;;24.73;51.97
6136;BME280;24008;42.664;23.372;2022-08-20T00:05:24;94403.03;;;24.75;51.83
6136;BME280;24008;42.664;23.372;2022-08-20T00:09:52;94380.41;;;24.52;52.52
6136;BME280;24008;42.664;23.372;2022-08-20T00:22:44;94422.19;;;24.81;52.51
6136;BME280;24008;42.664;23.372;2022-08-20T00:25:12;94424.72;;;24.75;52.81
6136;BME280;24008;42.664;23.372;2022-08-20T00:27:39;94411.34;;;24.72;52.96
6136;BME280;24008;42.664;23.372;2022-08-20T00:31:16;94415.31;;;24.74;52.80
6136;BME280;24008;42.664;23.372;2022-08-20T00:36:54;94408.63;;;24.67;52.82
6136;BME280;24008;42.664;23.372;2022-08-20T00:39:35;94238.69;;;23.43;53.43
6136;BME280;24008;42.664;23.372;2022-08-20T00:49:02;94192.91;;;22.95;53.92
6136;BME280;24008;42.664;23.372;2022-08-20T02:38:16;94354.75;;;23.17;60.28
6136;BME280;24008;42.664;23.372;2022-08-20T02:40:44;94354.75;;;23.17;60.35
6136;BME280;24008;42.664;23.372;2022-08-20T05:38:39;94366.84;;;29.40;47.06
6136;BME280;24008;42.664;23.372;2022-08-20T05:41:06;94377.06;;;29.61;46.93
6136;BME280;24008;42.664;23.372;2022-08-20T05:43:33;94383.66;;;29.64;47.11
6136;BME280;24008;42.664;23.372;2022-08-20T05:46:00;94371.56;;;29.53;47.24
6136;BME280;24008;42.664;23.372;2022-08-20T05:48:27;94372.59;;;29.62;47.88
6136;BME280;24008;42.664;23.372;2022-08-20T05:50:55;94366.75;;;29.80;46.70
6136;BME280;24008;42.664;23.372;2022-08-20T05:53:23;94366.13;;;30.14;46.16
6136;BME280;24008;42.664;23.372;2022-08-20T05:58:34;94378.56;;;30.57;44.26
6136;BME280;24008;42.664;23.372;2022-08-20T06:01:16;94315.63;;;30.40;44.01
6136;BME280;24008;42.664;23.372;2022-08-20T06:03:42;94366.50;;;30.41;44.46
6136;BME280;24008;42.664;23.372;2022-08-20T06:06:27;94334.22;;;30.59;44.22
6136;BME280;24008;42.664;23.372;2022-08-20T06:08:55;94262.53;;;30.47;41.85
6136;BME280;24008;42.664;23.372;2022-08-20T06:11:22;94363.47;;;31.60;40.53
6136;BME280;24008;42.664;23.372;2022-08-20T06:13:49;94362.31;;;31.95;39.50
6136;BME280;24008;42.664;23.372;2022-08-20T06:16:17;94348.00;;;32.19;39.10
6136;BME280;24008;42.664;23.372;2022-08-20T06:18:44;94362.47;;;32.83;38.02
6136;BME280;24008;42.664;23.372;2022-08-20T06:21:11;94344.75;;;32.46;39.20
6136;BME280;24008;42.664;23.372;2022-08-20T06:23:37;94377.75;;;32.86;38.42
6136;BME280;24008;42.664;23.372;2022-08-20T06:26:04;94377.25;;;32.66;37.96
6136;BME280;24008;42.664;23.372;2022-08-20T06:28:34;94354.44;;;32.88;37.58
6136;BME280;24008;42.664;23.372;2022-08-20T06:31:01;94327.84;;;32.42;37.82
6136;BME280;24008;42.664;23.372;2022-08-20T06:33:29;94316.94;;;32.06;40.29
6136;BME280;24008;42.664;23.372;2022-08-20T06:35:56;94355.22;;;32.89;39.27
6136;BME280;24008;42.664;23.372;2022-08-20T06:38:22;94373.88;;;33.62;36.97
6136;BME280;24008;42.664;23.372;2022-08-20T06:40:49;94354.03;;;33.60;37.06
6136;BME280;24008;42.664;23.372;2022-08-20T06:43:16;94370.69;;;33.93;36.47
6136;BME280;24008;42.664;23.372;2022-08-20T06:45:43;94375.84;;;34.12;35.32
6136;BME280;24008;42.664;23.372;2022-08-20T06:48:12;94368.97;;;34.24;35.84
6136;BME280;24008;42.664;23.372;2022-08-20T06:50:44;94365.22;;;34.75;34.54
6136;BME280;24008;42.664;23.372;2022-08-20T06:53:13;94361.81;;;34.61;34.48
6136;BME280;24008;42.664;23.372;2022-08-20T06:55:43;94351.78;;;34.58;34.05
6136;BME280;24008;42.664;23.372;2022-08-20T06:58:11;94363.22;;;34.45;34.78
6136;BME280;24008;42.664;23.372;2022-08-20T07:00:40;94285.50;;;33.94;34.61
6136;BME280;24008;42.664;23.372;2022-08-20T07:03:08;94355.00;;;34.68;33.86
6136;BME280;24008;42.664;23.372;2022-08-20T07:05:37;94353.41;;;35.03;33.29
6136;BME280;24008;42.664;23.372;2022-08-20T07:08:08;94333.13;;;34.63;33.59
6136;BME280;24008;42.664;23.372;2022-08-20T07:10:36;94348.91;;;34.32;33.91
6136;BME280;24008;42.664;23.372;2022-08-20T07:13:03;94355.50;;;34.07;34.98
6136;BME280;24008;42.664;23.372;2022-08-20T07:15:30;94348.13;;;34.31;34.60
6136;BME280;24008;42.664;23.372;2022-08-20T07:18:01;94337.09;;;34.52;34.12
6136;BME280;24008;42.664;23.372;2022-08-20T07:20:30;94344.09;;;34.70;33.89
6136;BME280;24008;42.664;23.372;2022-08-20T07:22:58;94320.16;;;34.84;34.21
6136;BME280;24008;42.664;23.372;2022-08-20T07:25:29;94338.72;;;34.61;33.77
6136;BME280;24008;42.664;23.372;2022-08-20T07:28:02;94319.69;;;34.46;34.07
6136;BME280;24008;42.664;23.372;2022-08-20T07:30:29;94329.22;;;34.83;33.76
6136;BME280;24008;42.664;23.372;2022-08-20T07:33:14;94333.28;;;34.66;33.63
6136;BME280;24008;42.664;23.372;2022-08-20T07:35:41;94337.47;;;35.03;33.86
6136;BME280;24008;42.664;23.372;2022-08-20T07:38:15;94333.59;;;34.65;33.90
6136;BME280;24008;42.664;23.372;2022-08-20T07:41:03;94332.66;;;33.97;34.68
6136;BME280;24008;42.664;23.372;2022-08-20T07:43:32;94306.59;;;34.13;34.51
6136;BME280;24008;42.664;23.372;2022-08-20T07:46:00;94294.19;;;34.22;34.58
6136;BME280;24008;42.664;23.372;2022-08-20T07:48:32;94314.94;;;34.56;33.70
6136;BME280;24008;42.664;23.372;2022-08-20T07:53:50;94324.75;;;35.45;32.50
6136;BME280;24008;42.664;23.372;2022-08-20T07:56:19;94333.00;;;35.74;32.27
6136;BME280;24008;42.664;23.372;2022-08-20T07:58:49;94332.44;;;35.55;32.48
6136;BME280;24008;42.664;23.372;2022-08-20T08:01:18;94274.56;;;34.68;33.56
6136;BME280;24008;42.664;23.372;2022-08-20T08:03:46;94332.88;;;34.73;33.79
6136;BME280;24008;42.664;23.372;2022-08-20T08:06:13;94296.63;;;35.22;33.31
6136;BME280;24008;42.664;23.372;2022-08-20T08:08:40;94316.31;;;35.83;32.13
6136;BME280;24008;42.664;23.372;2022-08-20T08:11:10;94320.06;;;35.82;32.12
6136;BME280;24008;42.664;23.372;2022-08-20T08:13:39;94314.25;;;35.40;32.71
6136;BME280;24008;42.664;23.372;2022-08-20T08:16:08;94286.44;;;34.84;33.47
6136;BME280;24008;42.664;23.372;2022-08-20T08:18:38;94331.34;;;35.48;32.52
6136;BME280;24008;42.664;23.372;2022-08-20T08:21:07;94331.84;;;35.58;32.15
6136;BME280;24008;42.664;23.372;2022-08-20T08:23:34;94335.06;;;35.38;33.09
6136;BME280;24008;42.664;23.372;2022-08-20T08:26:01;94309.28;;;35.47;32.83
6136;BME280;24008;42.664;23.372;2022-08-20T08:28:29;94315.22;;;35.92;32.21
6136;BME280;24008;42.664;23.372;2022-08-20T08:30:56;94320.34;;;36.28;31.62
6136;BME280;24008;42.664;23.372;2022-08-20T08:33:24;94314.06;;;36.93;31.05
6136;BME280;24008;42.664;23.372;2022-08-20T08:35:57;94310.41;;;37.24;30.50
6136;BME280;24008;42.664;23.372;2022-08-20T08:38:27;94313.34;;;37.39;30.01
6136;BME280;24008;42.664;23.372;2022-08-20T08:40:57;94312.81;;;37.17;30.61
6136;BME280;24008;42.664;23.372;2022-08-20T08:43:25;94313.25;;;37.01;30.61
6136;BME280;24008;42.664;23.372;2022-08-20T08:45:57;94303.84;;;36.09;31.72
6136;BME280;24008;42.664;23.372;2022-08-20T08:48:32;94300.38;;;37.12;31.14
6136;BME280;24008;42.664;23.372;2022-08-20T08:51:03;94295.25;;;37.62;30.60
6136;BME280;24008;42.664;23.372;2022-08-20T08:53:36;94278.91;;;37.26;30.43
6136;BME280;24008;42.664;23.372;2022-08-20T08:56:04;94291.16;;;37.56;29.80
6136;BME280;24008;42.664;23.372;2022-08-20T08:58:31;94289.91;;;37.07;29.76
6136;BME280;24008;42.664;23.372;2022-08-20T09:01:03;94287.56;;;37.05;30.23
6136;BME280;24008;42.664;23.372;2022-08-20T09:03:35;94258.69;;;37.07;30.24
6136;BME280;24008;42.664;23.372;2022-08-20T09:06:05;94260.31;;;37.46;29.84
6136;BME280;24008;42.664;23.372;2022-08-20T09:08:34;94262.00;;;37.89;29.06
6136;BME280;24008;42.664;23.372;2022-08-20T09:11:05;94285.13;;;37.76;29.47
6136;BME280;24008;42.664;23.372;2022-08-20T09:13:33;94277.00;;;37.73;29.27
6136;BME280;24008;42.664;23.372;2022-08-20T09:16:02;94276.63;;;37.45;30.42
6136;BME280;24008;42.664;23.372;2022-08-20T09:18:29;94247.47;;;37.40;29.44
6136;BME280;24008;42.664;23.372;2022-08-20T09:20:56;94280.16;;;37.20;30.14
6136;BME280;24008;42.664;23.372;2022-08-20T09:26:03;94271.91;;;38.09;28.22
6136;BME280;24008;42.664;23.372;2022-08-20T09:28:30;94258.91;;;38.08;27.99
6136;BME280;24008;42.664;23.372;2022-08-20T09:30:57;94276.38;;;37.97;28.37
6136;BME280;24008;42.664;23.372;2022-08-20T09:33:25;94176.59;;;37.68;27.88
6136;BME280;24008;42.664;23.372;2022-08-20T09:35:52;94249.00;;;38.29;27.64
6136;BME280;24008;42.664;23.372;2022-08-20T09:38:19;94247.41;;;37.10;29.56
6136;BME280;24008;42.664;23.372;2022-08-20T09:40:46;94257.56;;;37.26;29.43
6136;BME280;24008;42.664;23.372;2022-08-20T09:43:14;94191.34;;;37.36;28.98
6136;BME280;24008;42.664;23.372;2022-08-20T09:45:41;94259.28;;;37.68;28.68
6136;BME280;24008;42.664;23.372;2022-08-20T09:48:08;94254.75;;;37.22;29.27
6136;BME280;24008;42.664;23.372;2022-08-20T09:50:35;94255.47;;;37.40;29.23
6136;BME280;24008;42.664;23.372;2022-08-20T09:55:14;94259.59;;;36.56;30.41
6136;BME280;24008;42.664;23.372;2022-08-20T09:57:42;94253.88;;;37.01;30.51
6136;BME280;24008;42.664;23.372;2022-08-20T10:01:07;94220.91;;;37.52;29.10
6136;BME280;24008;42.664;23.372;2022-08-20T10:10:43;94256.91;;;38.26;27.71
6136;BME280;24008;42.664;23.372;2022-08-20T10:14:21;94186.59;;;37.12;28.55
